sensor_id;sensor_type;location;lat;lon;timestamp;P1;durP1;ratioP1;P2;durP2;ratioP2
6495;SDS011;3281;47.658;9.166;2022-09-03T00:01:56;2.67;;;2.50;;
6495;SDS011;3281;47.658;9.166;2022-09-03T00:04:29;1.63;;;1.40;;
6495;SDS011;3281;47.658;9.166;2022-09-03T00:07:03;1.40;;;1.30;;
6495;SDS011;3281;47.658;9.166;2022-09-03T00:09:35;2.93;;;2.30;;
6495;SDS011;3281;47.658;9.166;2022-09-03T00:12:07;2.60;;;1.90;;
6495;SDS011;3281;47.658;9.166;2022-09-03T00:14:38;2.33;;;2.17;;
6495;SDS011;3281;47.658;9.166;2022-09-03T00:17:08;3.87;;;1.73;;
6495;SDS011;3281;47.658;9.166;2022-09-03T00:19:40;1.77;;;1.67;;
6495;SDS011;3281;47.658;9.166;2022-09-03T00:22:12;4.10;;;1.90;;
6495;SDS011;3281;47.658;9.166;2022-09-03T00:24:44;2.00;;;1.77;;
6495;SDS011;3281;47.658;9.166;2022-09-03T00:27:13;2.00;;;1.93;;
6495;SDS011;3281;47.658;9.166;2022-09-03T00:29:45;1.40;;;1.13;;
6495;SDS011;3281;47.658;9.166;2022-09-03T00:32:15;1.80;;;1.73;;
6495;SDS011;3281;47.658;9.166;2022-09-03T00:34:46;2.13;;;1.97;;
6495;SDS011;3281;47.658;9.166;2022-09-03T00:37:16;2.07;;;1.97;;
6495;SDS011;3281;47.658;9.166;2022-09-03T00:39:44;3.00;;;2.80;;
6495;SDS011;3281;47.658;9.166;2022-09-03T00:42:19;12.10;;;2.07;;
6495;SDS011;3281;47.658;9.166;2022-09-03T00:45:03;1.60;;;1.50;;
6495;SDS011;3281;47.658;9.166;2022-09-03T00:47:43;2.10;;;2.00;;
6495;SDS011;3281;47.658;9.166;2022-09-03T00:50:20;1.00;;;1.00;;
6495;SDS011;3281;47.658;9.166;2022-09-03T00:52:58;3.50;;;3.20;;
6495;SDS011;3281;47.658;9.166;2022-09-03T00:55:33;0.97;;;0.97;;
6495;SDS011;3281;47.658;9.166;2022-09-03T00:58:14;1.80;;;1.80;;
6495;SDS011;3281;47.658;9.166;2022-09-03T01:00:59;2.27;;;1.83;;
6495;SDS011;3281;47.658;9.166;2022-09-03T01:03:37;2.97;;;2.87;;
6495;SDS011;3281;47.658;9.166;2022-09-03T01:06:12;1.80;;;1.70;;
6495;SDS011;3281;47.658;9.166;2022-09-03T01:08:50;0.87;;;0.87;;
6495;SDS011;3281;47.658;9.166;2022-09-03T01:11:31;1.33;;;1.33;;
6495;SDS011;3281;47.658;9.166;2022-09-03T01:14:22;2.50;;;2.27;;
6495;SDS011;3281;47.658;9.166;2022-09-03T01:17:00;1.93;;;1.83;;
6495;SDS011;3281;47.658;9.166;2022-09-03T01:19:50;1.83;;;1.83;;
6495;SDS011;3281;47.658;9.166;2022-09-03T01:25:37;1.20;;;1.10;;
6495;SDS011;3281;47.658;9.166;2022-09-03T01:28:24;1.50;;;1.50;;
6495;SDS011;3281;47.658;9.166;2022-09-03T01:31:13;1.27;;;1.27;;
6495;SDS011;3281;47.658;9.166;2022-09-03T01:33:48;1.90;;;1.80;;
6495;SDS011;3281;47.658;9.166;2022-09-03T01:36:25;0.83;;;0.83;;
6495;SDS011;3281;47.658;9.166;2022-09-03T01:38:58;2.30;;;2.20;;
6495;SDS011;3281;47.658;9.166;2022-09-03T01:41:30;1.53;;;1.50;;
6495;SDS011;3281;47.658;9.166;2022-09-03T01:44:22;2.00;;;1.90;;
6495;SDS011;3281;47.658;9.166;2022-09-03T01:47:04;1.60;;;1.60;;
6495;SDS011;3281;47.658;9.166;2022-09-03T01:49:43;2.30;;;2.10;;
6495;SDS011;3281;47.658;9.166;2022-09-03T01:52:24;0.93;;;0.93;;
6495;SDS011;3281;47.658;9.166;2022-09-03T01:55:09;2.00;;;1.90;;
6495;SDS011;3281;47.658;9.166;2022-09-03T01:57:49;2.50;;;2.40;;
6495;SDS011;3281;47.658;9.166;2022-09-03T02:00:23;1.67;;;1.57;;
6495;SDS011;3281;47.658;9.166;2022-09-03T02:02:52;2.43;;;1.90;;
6495;SDS011;3281;47.658;9.166;2022-09-03T02:05:19;3.20;;;2.93;;
6495;SDS011;3281;47.658;9.166;2022-09-03T02:07:48;2.30;;;2.10;;
6495;SDS011;3281;47.658;9.166;2022-09-03T02:10:20;1.97;;;1.90;;
6495;SDS011;3281;47.658;9.166;2022-09-03T02:12:53;1.23;;;1.23;;
6495;SDS011;3281;47.658;9.166;2022-09-03T02:15:25;1.03;;;1.03;;
6495;SDS011;3281;47.658;9.166;2022-09-03T02:17:55;1.17;;;1.17;;
6495;SDS011;3281;47.658;9.166;2022-09-03T02:20:26;1.53;;;1.43;;
6495;SDS011;3281;47.658;9.166;2022-09-03T02:22:55;1.93;;;1.83;;
6495;SDS011;3281;47.658;9.166;2022-09-03T02:25:23;1.37;;;1.27;;
6495;SDS011;3281;47.658;9.166;2022-09-03T02:27:55;1.50;;;1.40;;
6495;SDS011;3281;47.658;9.166;2022-09-03T02:30:23;1.63;;;1.53;;
6495;SDS011;3281;47.658;9.166;2022-09-03T02:32:51;1.70;;;1.60;;
6495;SDS011;3281;47.658;9.166;2022-09-03T02:35:18;0.50;;;0.50;;
6495;SDS011;3281;47.658;9.166;2022-09-03T02:37:45;1.40;;;1.40;;
6495;SDS011;3281;47.658;9.166;2022-09-03T02:40:12;1.60;;;1.50;;
6495;SDS011;3281;47.658;9.166;2022-09-03T02:42:39;3.13;;;0.77;;
6495;SDS011;3281;47.658;9.166;2022-09-03T02:45:08;1.07;;;1.07;;
6495;SDS011;3281;47.658;9.166;2022-09-03T02:47:41;1.70;;;1.60;;
6495;SDS011;3281;47.658;9.166;2022-09-03T02:50:14;3.20;;;2.80;;
6495;SDS011;3281;47.658;9.166;2022-09-03T02:52:40;2.03;;;1.93;;
6495;SDS011;3281;47.658;9.166;2022-09-03T02:55:07;1.53;;;1.43;;
6495;SDS011;3281;47.658;9.166;2022-09-03T02:57:34;0.77;;;0.77;;
6495;SDS011;3281;47.658;9.166;2022-09-03T03:00:02;1.20;;;1.20;;
6495;SDS011;3281;47.658;9.166;2022-09-03T03:02:29;0.83;;;0.83;;
6495;SDS011;3281;47.658;9.166;2022-09-03T03:04:56;1.20;;;1.20;;
6495;SDS011;3281;47.658;9.166;2022-09-03T03:07:24;1.67;;;1.47;;
6495;SDS011;3281;47.658;9.166;2022-09-03T03:09:51;1.33;;;1.23;;
6495;SDS011;3281;47.658;9.166;2022-09-03T03:12:18;1.03;;;1.03;;
6495;SDS011;3281;47.658;9.166;2022-09-03T03:14:45;0.70;;;0.70;;
6495;SDS011;3281;47.658;9.166;2022-09-03T03:17:12;1.27;;;1.27;;
6495;SDS011;3281;47.658;9.166;2022-09-03T03:19:38;1.70;;;1.60;;
6495;SDS011;3281;47.658;9.166;2022-09-03T03:22:05;0.83;;;0.83;;
6495;SDS011;3281;47.658;9.166;2022-09-03T03:24:34;0.87;;;0.87;;
6495;SDS011;3281;47.658;9.166;2022-09-03T03:27:00;1.53;;;1.43;;
6495;SDS011;3281;47.658;9.166;2022-09-03T03:29:31;0.63;;;0.63;;
6495;SDS011;3281;47.658;9.166;2022-09-03T03:31:59;0.93;;;0.93;;
6495;SDS011;3281;47.658;9.166;2022-09-03T03:34:25;2.27;;;2.17;;
6495;SDS011;3281;47.658;9.166;2022-09-03T03:36:52;1.87;;;0.73;;
6495;SDS011;3281;47.658;9.166;2022-09-03T03:39:19;0.53;;;0.53;;
6495;SDS011;3281;47.658;9.166;2022-09-03T03:41:47;0.93;;;0.93;;
6495;SDS011;3281;47.658;9.166;2022-09-03T03:44:16;0.67;;;0.67;;
6495;SDS011;3281;47.658;9.166;2022-09-03T03:46:44;0.83;;;0.83;;
6495;SDS011;3281;47.658;9.166;2022-09-03T03:49:11;0.93;;;0.93;;
6495;SDS011;3281;47.658;9.166;2022-09-03T03:51:38;1.07;;;1.07;;
6495;SDS011;3281;47.658;9.166;2022-09-03T03:54:05;1.30;;;1.30;;
6495;SDS011;3281;47.658;9.166;2022-09-03T03:56:32;1.17;;;1.17;;
6495;SDS011;3281;47.658;9.166;2022-09-03T03:59:01;1.00;;;1.00;;
6495;SDS011;3281;47.658;9.166;2022-09-03T04:01:28;1.10;;;1.10;;
6495;SDS011;3281;47.658;9.166;2022-09-03T04:03:56;0.83;;;0.83;;
6495;SDS011;3281;47.658;9.166;2022-09-03T04:06:24;0.67;;;0.67;;
6495;SDS011;3281;47.658;9.166;2022-09-03T04:08:51;0.93;;;0.93;;
6495;SDS011;3281;47.658;9.166;2022-09-03T04:11:19;1.03;;;1.03;;
6495;SDS011;3281;47.658;9.166;2022-09-03T04:13:48;0.83;;;0.83;;
6495;SDS011;3281;47.658;9.166;2022-09-03T04:16:17;1.00;;;1.00;;
6495;SDS011;3281;47.658;9.166;2022-09-03T04:18:46;0.60;;;0.60;;
6495;SDS011;3281;47.658;9.166;2022-09-03T04:21:14;0.97;;;0.97;;
6495;SDS011;3281;47.658;9.166;2022-09-03T04:23:43;2.00;;;2.00;;
6495;SDS011;3281;47.658;9.166;2022-09-03T04:26:11;1.13;;;1.13;;
6495;SDS011;3281;47.658;9.166;2022-09-03T04:28:39;1.03;;;1.03;;
6495;SDS011;3281;47.658;9.166;2022-09-03T04:31:07;0.50;;;0.50;;
6495;SDS011;3281;47.658;9.166;2022-09-03T04:33:36;0.50;;;0.50;;
6495;SDS011;3281;47.658;9.166;2022-09-03T04:36:04;0.63;;;0.63;;
6495;SDS011;3281;47.658;9.166;2022-09-03T04:38:32;0.60;;;0.60;;
6495;SDS011;3281;47.658;9.166;2022-09-03T04:40:59;0.53;;;0.53;;
6495;SDS011;3281;47.658;9.166;2022-09-03T04:43:26;0.30;;;0.30;;
6495;SDS011;3281;47.658;9.166;2022-09-03T04:45:57;0.77;;;0.77;;
6495;SDS011;3281;47.658;9.166;2022-09-03T04:48:24;0.27;;;0.27;;
6495;SDS011;3281;47.658;9.166;2022-09-03T04:50:53;0.40;;;0.40;;
6495;SDS011;3281;47.658;9.166;2022-09-03T04:53:20;0.27;;;0.27;;
6495;SDS011;3281;47.658;9.166;2022-09-03T04:55:47;0.30;;;0.30;;
6495;SDS011;3281;47.658;9.166;2022-09-03T04:58:15;0.60;;;0.60;;
6495;SDS011;3281;47.658;9.166;2022-09-03T05:00:41;1.03;;;0.93;;
6495;SDS011;3281;47.658;9.166;2022-09-03T05:03:08;0.33;;;0.33;;
6495;SDS011;3281;47.658;9.166;2022-09-03T05:05:35;0.50;;;0.50;;
6495;SDS011;3281;47.658;9.166;2022-09-03T05:08:03;0.20;;;0.20;;
6495;SDS011;3281;47.658;9.166;2022-09-03T05:10:30;0.10;;;0.10;;
6495;SDS011;3281;47.658;9.166;2022-09-03T05:12:58;0.20;;;0.20;;
6495;SDS011;3281;47.658;9.166;2022-09-03T05:15:26;0.20;;;0.20;;
6495;SDS011;3281;47.658;9.166;2022-09-03T05:17:56;0.20;;;0.20;;
6495;SDS011;3281;47.658;9.166;2022-09-03T05:20:24;0.30;;;0.30;;
6495;SDS011;3281;47.658;9.166;2022-09-03T05:22:51;0.47;;;0.47;;
6495;SDS011;3281;47.658;9.166;2022-09-03T05:25:20;0.10;;;0.10;;
6495;SDS011;3281;47.658;9.166;2022-09-03T05:27:47;0.20;;;0.20;;
6495;SDS011;3281;47.658;9.166;2022-09-03T05:30:13;0.17;;;0.17;;
6495;SDS011;3281;47.658;9.166;2022-09-03T05:32:41;0.20;;;0.20;;
6495;SDS011;3281;47.658;9.166;2022-09-03T05:35:08;0.20;;;0.20;;
6495;SDS011;3281;47.658;9.166;2022-09-03T05:37:35;0.33;;;0.33;;
6495;SDS011;3281;47.658;9.166;2022-09-03T05:40:03;0.30;;;0.30;;
6495;SDS011;3281;47.658;9.166;2022-09-03T05:42:32;0.47;;;0.47;;
6495;SDS011;3281;47.658;9.166;2022-09-03T05:45:04;0.43;;;0.30;;
6495;SDS011;3281;47.658;9.166;2022-09-03T05:47:34;0.20;;;0.20;;
6495;SDS011;3281;47.658;9.166;2022-09-03T05:50:00;0.20;;;0.20;;
6495;SDS011;3281;47.658;9.166;2022-09-03T05:52:27;0.40;;;0.40;;
6495;SDS011;3281;47.658;9.166;2022-09-03T05:54:54;0.83;;;0.83;;
6495;SDS011;3281;47.658;9.166;2022-09-03T05:57:20;0.37;;;0.37;;
6495;SDS011;3281;47.658;9.166;2022-09-03T05:59:49;0.10;;;0.10;;
6495;SDS011;3281;47.658;9.166;2022-09-03T06:02:15;0.47;;;0.40;;
6495;SDS011;3281;47.658;9.166;2022-09-03T06:04:43;0.20;;;0.20;;
6495;SDS011;3281;47.658;9.166;2022-09-03T06:07:10;0.47;;;0.47;;
6495;SDS011;3281;47.658;9.166;2022-09-03T06:09:37;0.30;;;0.30;;
6495;SDS011;3281;47.658;9.166;2022-09-03T06:12:04;0.10;;;0.10;;
6495;SDS011;3281;47.658;9.166;2022-09-03T06:14:31;0.13;;;0.13;;
6495;SDS011;3281;47.658;9.166;2022-09-03T06:16:59;0.77;;;0.73;;
6495;SDS011;3281;47.658;9.166;2022-09-03T06:19:26;0.27;;;0.27;;
6495;SDS011;3281;47.658;9.166;2022-09-03T06:21:52;0.93;;;0.93;;
6495;SDS011;3281;47.658;9.166;2022-09-03T06:24:20;0.63;;;0.63;;
6495;SDS011;3281;47.658;9.166;2022-09-03T06:26:47;0.13;;;0.13;;
6495;SDS011;3281;47.658;9.166;2022-09-03T06:29:15;0.40;;;0.40;;
6495;SDS011;3281;47.658;9.166;2022-09-03T06:31:43;0.37;;;0.37;;
6495;SDS011;3281;47.658;9.166;2022-09-03T06:34:11;0.23;;;0.23;;
6495;SDS011;3281;47.658;9.166;2022-09-03T06:36:38;0.20;;;0.20;;
6495;SDS011;3281;47.658;9.166;2022-09-03T06:39:06;0.57;;;0.57;;
6495;SDS011;3281;47.658;9.166;2022-09-03T06:41:32;0.17;;;0.17;;
6495;SDS011;3281;47.658;9.166;2022-09-03T06:44:00;0.50;;;0.50;;
6495;SDS011;3281;47.658;9.166;2022-09-03T06:46:29;0.13;;;0.13;;
6495;SDS011;3281;47.658;9.166;2022-09-03T06:48:56;0.20;;;0.20;;
6495;SDS011;3281;47.658;9.166;2022-09-03T06:51:25;0.40;;;0.40;;
6495;SDS011;3281;47.658;9.166;2022-09-03T06:53:54;0.23;;;0.23;;
6495;SDS011;3281;47.658;9.166;2022-09-03T06:56:25;0.30;;;0.30;;
6495;SDS011;3281;47.658;9.166;2022-09-03T06:58:52;0.23;;;0.23;;
6495;SDS011;3281;47.658;9.166;2022-09-03T07:01:21;0.63;;;0.63;;
6495;SDS011;3281;47.658;9.166;2022-09-03T07:03:51;0.87;;;0.87;;
6495;SDS011;3281;47.658;9.166;2022-09-03T07:06:21;0.57;;;0.57;;
6495;SDS011;3281;47.658;9.166;2022-09-03T07:08:52;0.53;;;0.53;;
6495;SDS011;3281;47.658;9.166;2022-09-03T07:11:22;0.47;;;0.47;;
6495;SDS011;3281;47.658;9.166;2022-09-03T07:13:50;0.17;;;0.17;;
6495;SDS011;3281;47.658;9.166;2022-09-03T07:16:19;0.43;;;0.43;;
6495;SDS011;3281;47.658;9.166;2022-09-03T07:18:47;0.20;;;0.20;;
6495;SDS011;3281;47.658;9.166;2022-09-03T07:21:15;0.43;;;0.43;;
6495;SDS011;3281;47.658;9.166;2022-09-03T07:23:43;0.27;;;0.27;;
6495;SDS011;3281;47.658;9.166;2022-09-03T07:26:13;0.23;;;0.23;;
6495;SDS011;3281;47.658;9.166;2022-09-03T07:28:42;0.63;;;0.63;;
6495;SDS011;3281;47.658;9.166;2022-09-03T07:31:11;0.20;;;0.20;;
6495;SDS011;3281;47.658;9.166;2022-09-03T07:33:39;0.17;;;0.17;;
6495;SDS011;3281;47.658;9.166;2022-09-03T07:36:08;0.20;;;0.20;;
6495;SDS011;3281;47.658;9.166;2022-09-03T07:38:36;0.37;;;0.37;;
6495;SDS011;3281;47.658;9.166;2022-09-03T07:41:04;0.30;;;0.30;;
6495;SDS011;3281;47.658;9.166;2022-09-03T07:43:34;1.10;;;0.37;;
6495;SDS011;3281;47.658;9.166;2022-09-03T07:46:04;0.50;;;0.50;;
6495;SDS011;3281;47.658;9.166;2022-09-03T07:48:31;1.13;;;1.13;;
6495;SDS011;3281;47.658;9.166;2022-09-03T07:50:58;0.73;;;0.73;;
6495;SDS011;3281;47.658;9.166;2022-09-03T07:53:26;0.50;;;0.50;;
6495;SDS011;3281;47.658;9.166;2022-09-03T07:55:53;0.37;;;0.37;;
6495;SDS011;3281;47.658;9.166;2022-09-03T07:58:27;0.40;;;0.40;;
6495;SDS011;3281;47.658;9.166;2022-09-03T08:00:55;0.47;;;0.47;;
6495;SDS011;3281;47.658;9.166;2022-09-03T08:03:22;0.83;;;0.83;;
6495;SDS011;3281;47.658;9.166;2022-09-03T08:05:49;0.50;;;0.50;;
6495;SDS011;3281;47.658;9.166;2022-09-03T08:08:16;0.27;;;0.27;;
6495;SDS011;3281;47.658;9.166;2022-09-03T08:10:43;0.50;;;0.50;;
6495;SDS011;3281;47.658;9.166;2022-09-03T08:13:10;0.10;;;0.10;;
6495;SDS011;3281;47.658;9.166;2022-09-03T08:15:37;0.17;;;0.17;;
6495;SDS011;3281;47.658;9.166;2022-09-03T08:18:08;0.97;;;0.97;;
6495;SDS011;3281;47.658;9.166;2022-09-03T08:20:35;0.83;;;0.30;;
6495;SDS011;3281;47.658;9.166;2022-09-03T08:23:03;0.20;;;0.20;;
6495;SDS011;3281;47.658;9.166;2022-09-03T08:25:30;0.77;;;0.77;;
6495;SDS011;3281;47.658;9.166;2022-09-03T08:27:57;2.77;;;2.57;;
6495;SDS011;3281;47.658;9.166;2022-09-03T08:30:25;1.03;;;1.03;;
6495;SDS011;3281;47.658;9.166;2022-09-03T08:32:52;3.20;;;1.10;;
6495;SDS011;3281;47.658;9.166;2022-09-03T08:35:21;1.13;;;1.13;;
6495;SDS011;3281;47.658;9.166;2022-09-03T08:37:48;2.07;;;1.83;;
6495;SDS011;3281;47.658;9.166;2022-09-03T08:40:18;1.40;;;1.30;;
6495;SDS011;3281;47.658;9.166;2022-09-03T08:42:50;1.33;;;1.33;;
6495;SDS011;3281;47.658;9.166;2022-09-03T08:45:30;1.67;;;1.57;;
6495;SDS011;3281;47.658;9.166;2022-09-03T08:48:00;1.00;;;1.00;;
6495;SDS011;3281;47.658;9.166;2022-09-03T08:50:33;1.37;;;1.00;;
6495;SDS011;3281;47.658;9.166;2022-09-03T08:53:06;1.30;;;1.20;;
6495;SDS011;3281;47.658;9.166;2022-09-03T08:55:38;1.73;;;1.27;;
6495;SDS011;3281;47.658;9.166;2022-09-03T08:58:13;0.97;;;0.93;;
6495;SDS011;3281;47.658;9.166;2022-09-03T09:00:45;1.27;;;1.27;;
6495;SDS011;3281;47.658;9.166;2022-09-03T09:03:26;1.13;;;1.13;;
6495;SDS011;3281;47.658;9.166;2022-09-03T09:06:04;0.93;;;0.90;;
6495;SDS011;3281;47.658;9.166;2022-09-03T09:08:38;0.83;;;0.70;;
6495;SDS011;3281;47.658;9.166;2022-09-03T09:11:15;1.00;;;1.00;;
6495;SDS011;3281;47.658;9.166;2022-09-03T09:13:53;0.60;;;0.60;;
6495;SDS011;3281;47.658;9.166;2022-09-03T09:16:26;0.60;;;0.60;;
6495;SDS011;3281;47.658;9.166;2022-09-03T09:19:04;1.10;;;1.10;;
6495;SDS011;3281;47.658;9.166;2022-09-03T09:21:44;0.97;;;0.97;;
6495;SDS011;3281;47.658;9.166;2022-09-03T09:24:16;1.30;;;0.87;;
6495;SDS011;3281;47.658;9.166;2022-09-03T09:26:47;1.27;;;1.17;;
6495;SDS011;3281;47.658;9.166;2022-09-03T09:29:14;0.73;;;0.73;;
6495;SDS011;3281;47.658;9.166;2022-09-03T09:31:42;1.47;;;0.93;;
6495;SDS011;3281;47.658;9.166;2022-09-03T09:34:09;1.00;;;1.00;;
6495;SDS011;3281;47.658;9.166;2022-09-03T09:36:40;0.67;;;0.67;;
6495;SDS011;3281;47.658;9.166;2022-09-03T09:39:10;0.60;;;0.60;;
6495;SDS011;3281;47.658;9.166;2022-09-03T09:41:39;0.53;;;0.53;;
6495;SDS011;3281;47.658;9.166;2022-09-03T09:44:07;1.00;;;1.00;;
6495;SDS011;3281;47.658;9.166;2022-09-03T09:46:34;0.90;;;0.90;;
6495;SDS011;3281;47.658;9.166;2022-09-03T09:49:07;0.40;;;0.40;;
6495;SDS011;3281;47.658;9.166;2022-09-03T09:51:58;0.70;;;0.70;;
6495;SDS011;3281;47.658;9.166;2022-09-03T09:54:32;0.70;;;0.70;;
6495;SDS011;3281;47.658;9.166;2022-09-03T09:56:59;1.03;;;1.03;;
6495;SDS011;3281;47.658;9.166;2022-09-03T09:59:28;0.60;;;0.60;;
6495;SDS011;3281;47.658;9.166;2022-09-03T10:02:02;0.63;;;0.63;;
6495;SDS011;3281;47.658;9.166;2022-09-03T10:04:34;0.50;;;0.50;;
6495;SDS011;3281;47.658;9.166;2022-09-03T10:07:02;1.17;;;1.17;;
6495;SDS011;3281;47.658;9.166;2022-09-03T10:09:45;0.60;;;0.60;;
6495;SDS011;3281;47.658;9.166;2022-09-03T10:12:23;1.00;;;1.00;;
6495;SDS011;3281;47.658;9.166;2022-09-03T10:14:54;0.70;;;0.70;;
6495;SDS011;3281;47.658;9.166;2022-09-03T10:17:28;1.40;;;0.97;;
6495;SDS011;3281;47.658;9.166;2022-09-03T10:20:00;0.80;;;0.80;;
6495;SDS011;3281;47.658;9.166;2022-09-03T10:22:55;0.50;;;0.50;;
6495;SDS011;3281;47.658;9.166;2022-09-03T10:25:28;1.23;;;1.13;;
6495;SDS011;3281;47.658;9.166;2022-09-03T10:28:03;0.50;;;0.50;;
6495;SDS011;3281;47.658;9.166;2022-09-03T10:30:31;0.83;;;0.83;;
6495;SDS011;3281;47.658;9.166;2022-09-03T10:33:12;2.63;;;0.97;;
6495;SDS011;3281;47.658;9.166;2022-09-03T10:35:44;1.57;;;1.47;;
6495;SDS011;3281;47.658;9.166;2022-09-03T10:38:19;1.37;;;1.27;;
6495;SDS011;3281;47.658;9.166;2022-09-03T10:40:56;1.37;;;1.27;;
6495;SDS011;3281;47.658;9.166;2022-09-03T10:43:39;0.90;;;0.90;;
6495;SDS011;3281;47.658;9.166;2022-09-03T10:46:16;0.97;;;0.97;;
6495;SDS011;3281;47.658;9.166;2022-09-03T10:48:51;1.03;;;1.03;;
6495;SDS011;3281;47.658;9.166;2022-09-03T10:51:39;0.73;;;0.73;;
6495;SDS011;3281;47.658;9.166;2022-09-03T10:54:15;0.77;;;0.77;;
6495;SDS011;3281;47.658;9.166;2022-09-03T10:56:59;0.70;;;0.70;;
6495;SDS011;3281;47.658;9.166;2022-09-03T10:59:35;0.43;;;0.43;;
6495;SDS011;3281;47.658;9.166;2022-09-03T11:02:28;0.67;;;0.67;;
6495;SDS011;3281;47.658;9.166;2022-09-03T11:05:07;1.50;;;1.40;;
6495;SDS011;3281;47.658;9.166;2022-09-03T11:07:41;1.10;;;1.00;;
6495;SDS011;3281;47.658;9.166;2022-09-03T11:10:12;0.97;;;0.97;;
6495;SDS011;3281;47.658;9.166;2022-09-03T11:12:45;1.43;;;1.33;;
6495;SDS011;3281;47.658;9.166;2022-09-03T11:15:17;2.17;;;1.17;;
6495;SDS011;3281;47.658;9.166;2022-09-03T11:17:50;0.93;;;0.93;;
6495;SDS011;3281;47.658;9.166;2022-09-03T11:20:21;1.17;;;1.17;;
6495;SDS011;3281;47.658;9.166;2022-09-03T11:22:52;0.93;;;0.93;;
6495;SDS011;3281;47.658;9.166;2022-09-03T11:25:24;1.23;;;1.20;;
6495;SDS011;3281;47.658;9.166;2022-09-03T11:28:04;0.83;;;0.83;;
6495;SDS011;3281;47.658;9.166;2022-09-03T11:30:46;1.07;;;1.07;;
6495;SDS011;3281;47.658;9.166;2022-09-03T11:33:22;1.90;;;1.47;;
6495;SDS011;3281;47.658;9.166;2022-09-03T11:35:56;1.47;;;1.40;;
6495;SDS011;3281;47.658;9.166;2022-09-03T11:38:25;0.93;;;0.93;;
6495;SDS011;3281;47.658;9.166;2022-09-03T11:40:59;1.93;;;1.53;;
6495;SDS011;3281;47.658;9.166;2022-09-03T11:43:29;0.97;;;0.97;;
6495;SDS011;3281;47.658;9.166;2022-09-03T11:46:01;0.80;;;0.80;;
6495;SDS011;3281;47.658;9.166;2022-09-03T11:48:36;2.27;;;1.10;;
6495;SDS011;3281;47.658;9.166;2022-09-03T11:51:16;0.80;;;0.80;;
6495;SDS011;3281;47.658;9.166;2022-09-03T11:53:52;2.10;;;2.00;;
6495;SDS011;3281;47.658;9.166;2022-09-03T11:56:20;1.43;;;1.10;;
6495;SDS011;3281;47.658;9.166;2022-09-03T11:58:58;0.80;;;0.80;;
6495;SDS011;3281;47.658;9.166;2022-09-03T12:01:41;1.53;;;1.03;;
6495;SDS011;3281;47.658;9.166;2022-09-03T12:04:12;0.80;;;0.80;;
6495;SDS011;3281;47.658;9.166;2022-09-03T12:06:45;1.13;;;0.70;;
6495;SDS011;3281;47.658;9.166;2022-09-03T12:12:27;0.70;;;0.70;;
6495;SDS011;3281;47.658;9.166;2022-09-03T12:15:04;0.80;;;0.80;;
6495;SDS011;3281;47.658;9.166;2022-09-03T12:17:37;0.40;;;0.40;;
6495;SDS011;3281;47.658;9.166;2022-09-03T12:20:14;0.60;;;0.60;;
6495;SDS011;3281;47.658;9.166;2022-09-03T12:22:41;0.57;;;0.57;;
6495;SDS011;3281;47.658;9.166;2022-09-03T12:25:08;0.50;;;0.50;;
6495;SDS011;3281;47.658;9.166;2022-09-03T12:27:37;0.40;;;0.40;;
6495;SDS011;3281;47.658;9.166;2022-09-03T12:30:12;0.40;;;0.40;;
6495;SDS011;3281;47.658;9.166;2022-09-03T12:32:41;0.43;;;0.43;;
6495;SDS011;3281;47.658;9.166;2022-09-03T12:35:11;0.53;;;0.53;;
6495;SDS011;3281;47.658;9.166;2022-09-03T12:37:40;0.60;;;0.60;;
6495;SDS011;3281;47.658;9.166;2022-09-03T12:40:15;0.57;;;0.57;;
6495;SDS011;3281;47.658;9.166;2022-09-03T12:42:45;0.53;;;0.53;;
6495;SDS011;3281;47.658;9.166;2022-09-03T12:45:13;10.83;;;0.73;;
6495;SDS011;3281;47.658;9.166;2022-09-03T12:47:43;0.70;;;0.70;;
6495;SDS011;3281;47.658;9.166;2022-09-03T12:50:11;0.60;;;0.60;;
6495;SDS011;3281;47.658;9.166;2022-09-03T12:52:38;0.50;;;0.50;;
6495;SDS011;3281;47.658;9.166;2022-09-03T12:55:12;0.50;;;0.50;;
6495;SDS011;3281;47.658;9.166;2022-09-03T12:58:00;0.90;;;0.90;;
6495;SDS011;3281;47.658;9.166;2022-09-03T13:00:32;0.40;;;0.40;;
6495;SDS011;3281;47.658;9.166;2022-09-03T13:03:02;0.40;;;0.40;;
6495;SDS011;3281;47.658;9.166;2022-09-03T13:05:32;0.40;;;0.40;;
6495;SDS011;3281;47.658;9.166;2022-09-03T13:08:07;3.33;;;1.87;;
6495;SDS011;3281;47.658;9.166;2022-09-03T13:10:40;0.50;;;0.50;;
6495;SDS011;3281;47.658;9.166;2022-09-03T13:13:16;4.63;;;0.77;;
6495;SDS011;3281;47.658;9.166;2022-09-03T13:16:05;1.07;;;1.00;;
6495;SDS011;3281;47.658;9.166;2022-09-03T13:18:55;0.50;;;0.50;;
6495;SDS011;3281;47.658;9.166;2022-09-03T13:21:30;0.80;;;0.80;;
6495;SDS011;3281;47.658;9.166;2022-09-03T13:24:11;0.40;;;0.40;;
6495;SDS011;3281;47.658;9.166;2022-09-03T13:26:48;0.60;;;0.60;;
6495;SDS011;3281;47.658;9.166;2022-09-03T13:29:38;0.57;;;0.57;;
6495;SDS011;3281;47.658;9.166;2022-09-03T13:32:18;0.60;;;0.60;;
6495;SDS011;3281;47.658;9.166;2022-09-03T13:34:52;0.50;;;0.50;;
6495;SDS011;3281;47.658;9.166;2022-09-03T13:37:24;0.67;;;0.67;;
6495;SDS011;3281;47.658;9.166;2022-09-03T13:39:57;0.50;;;0.50;;
6495;SDS011;3281;47.658;9.166;2022-09-03T13:42:31;0.80;;;0.80;;
6495;SDS011;3281;47.658;9.166;2022-09-03T13:45:02;0.60;;;0.60;;
6495;SDS011;3281;47.658;9.166;2022-09-03T13:47:39;0.60;;;0.60;;
6495;SDS011;3281;47.658;9.166;2022-09-03T13:50:24;0.77;;;0.77;;
6495;SDS011;3281;47.658;9.166;2022-09-03T13:52:55;3.70;;;1.17;;
6495;SDS011;3281;47.658;9.166;2022-09-03T13:55:27;0.50;;;0.50;;
6495;SDS011;3281;47.658;9.166;2022-09-03T13:58:02;0.47;;;0.47;;
6495;SDS011;3281;47.658;9.166;2022-09-03T14:00:32;0.60;;;0.60;;
6495;SDS011;3281;47.658;9.166;2022-09-03T14:03:06;0.50;;;0.50;;
6495;SDS011;3281;47.658;9.166;2022-09-03T14:05:42;0.40;;;0.40;;
6495;SDS011;3281;47.658;9.166;2022-09-03T14:08:21;0.53;;;0.53;;
6495;SDS011;3281;47.658;9.166;2022-09-03T14:10:55;0.50;;;0.50;;
6495;SDS011;3281;47.658;9.166;2022-09-03T14:13:29;1.70;;;1.00;;
6495;SDS011;3281;47.658;9.166;2022-09-03T14:16:09;0.67;;;0.67;;
6495;SDS011;3281;47.658;9.166;2022-09-03T14:18:45;0.50;;;0.50;;
6495;SDS011;3281;47.658;9.166;2022-09-03T14:21:19;0.50;;;0.50;;
6495;SDS011;3281;47.658;9.166;2022-09-03T14:23:52;1.60;;;0.57;;
6495;SDS011;3281;47.658;9.166;2022-09-03T14:26:26;0.77;;;0.77;;
6495;SDS011;3281;47.658;9.166;2022-09-03T14:28:58;0.57;;;0.57;;
6495;SDS011;3281;47.658;9.166;2022-09-03T14:31:33;0.87;;;0.87;;
6495;SDS011;3281;47.658;9.166;2022-09-03T14:34:20;0.70;;;0.70;;
6495;SDS011;3281;47.658;9.166;2022-09-03T14:37:00;0.53;;;0.53;;
6495;SDS011;3281;47.658;9.166;2022-09-03T14:39:33;0.70;;;0.70;;
6495;SDS011;3281;47.658;9.166;2022-09-03T14:42:12;0.63;;;0.60;;
6495;SDS011;3281;47.658;9.166;2022-09-03T14:48:01;0.50;;;0.50;;
6495;SDS011;3281;47.658;9.166;2022-09-03T14:50:51;0.93;;;0.83;;
6495;SDS011;3281;47.658;9.166;2022-09-03T14:53:41;0.70;;;0.70;;
6495;SDS011;3281;47.658;9.166;2022-09-03T14:56:21;1.00;;;1.00;;
6495;SDS011;3281;47.658;9.166;2022-09-03T14:59:03;0.57;;;0.57;;
6495;SDS011;3281;47.658;9.166;2022-09-03T15:01:39;1.33;;;1.23;;
6495;SDS011;3281;47.658;9.166;2022-09-03T15:04:17;0.60;;;0.60;;
6495;SDS011;3281;47.658;9.166;2022-09-03T15:07:05;0.60;;;0.60;;
6495;SDS011;3281;47.658;9.166;2022-09-03T15:09:41;0.53;;;0.53;;
6495;SDS011;3281;47.658;9.166;2022-09-03T15:12:17;0.50;;;0.50;;
6495;SDS011;3281;47.658;9.166;2022-09-03T15:14:48;0.40;;;0.40;;
6495;SDS011;3281;47.658;9.166;2022-09-03T15:17:24;0.67;;;0.67;;
6495;SDS011;3281;47.658;9.166;2022-09-03T15:20:07;0.73;;;0.73;;
6495;SDS011;3281;47.658;9.166;2022-09-03T15:22:51;0.70;;;0.70;;
6495;SDS011;3281;47.658;9.166;2022-09-03T15:25:32;0.80;;;0.80;;
6495;SDS011;3281;47.658;9.166;2022-09-03T15:28:10;0.50;;;0.50;;
6495;SDS011;3281;47.658;9.166;2022-09-03T15:30:44;1.50;;;0.80;;
6495;SDS011;3281;47.658;9.166;2022-09-03T15:33:20;0.70;;;0.70;;
6495;SDS011;3281;47.658;9.166;2022-09-03T15:35:58;0.40;;;0.40;;
6495;SDS011;3281;47.658;9.166;2022-09-03T15:38:36;0.60;;;0.60;;
6495;SDS011;3281;47.658;9.166;2022-09-03T15:41:08;0.60;;;0.60;;
6495;SDS011;3281;47.658;9.166;2022-09-03T15:43:45;0.50;;;0.50;;
6495;SDS011;3281;47.658;9.166;2022-09-03T15:46:27;0.50;;;0.50;;
6495;SDS011;3281;47.658;9.166;2022-09-03T15:49:03;0.70;;;0.70;;
6495;SDS011;3281;47.658;9.166;2022-09-03T15:51:40;0.70;;;0.70;;
6495;SDS011;3281;47.658;9.166;2022-09-03T15:54:16;0.70;;;0.70;;
6495;SDS011;3281;47.658;9.166;2022-09-03T15:56:51;0.40;;;0.40;;